createdAt,value
2018-08-25T00:02:53.780Z,2.60
2018-08-25T00:07:57.150Z,2.50
2018-08-25T00:13:00.464Z,2.27
2018-08-25T00:18:04.845Z,2.40
2018-08-25T00:23:09.636Z,2.30
2018-08-25T00:28:13.008Z,2.60
2018-08-25T00:33:16.316Z,2.70
2018-08-25T00:38:19.640Z,2.45
2018-08-25T00:43:22.919Z,2.20
2018-08-25T00:48:26.245Z,2.02
2018-08-25T00:53:29.649Z,2.60
2018-08-25T00:58:33.059Z,2.40
2018-08-25T01:03:36.431Z,2.20
2018-08-25T01:08:39.826Z,2.60
2018-08-25T01:13:43.123Z,2.20
2018-08-25T01:18:46.513Z,2.43
2018-08-25T01:23:49.945Z,2.47
2018-08-25T01:28:53.392Z,2.35
2018-08-25T01:33:57.792Z,2.50
2018-08-25T01:39:01.307Z,2.52
2018-08-25T01:44:04.677Z,2.50
2018-08-25T01:54:09.620Z,2.30
2018-08-25T01:59:13.011Z,2.40
2018-08-25T02:04:16.489Z,2.80
2018-08-25T02:09:19.979Z,2.70
2018-08-25T02:14:25.182Z,2.33
2018-08-25T02:19:28.452Z,2.50
2018-08-25T02:24:31.819Z,3.00
2018-08-25T02:29:35.128Z,3.20
2018-08-25T02:34:38.407Z,2.42
2018-08-25T02:39:41.741Z,2.50
2018-08-25T02:44:45.053Z,2.50
2018-08-25T02:49:48.364Z,2.70
2018-08-25T02:54:51.869Z,2.60
2018-08-25T02:59:55.253Z,2.90
2018-08-25T03:04:58.707Z,2.90
2018-08-25T03:15:14.991Z,2.67
2018-08-25T03:20:18.655Z,2.70
2018-08-25T03:25:21.984Z,3.20
2018-08-25T03:30:25.452Z,3.20
2018-08-25T03:35:28.744Z,2.53
2018-08-25T03:40:32.959Z,3.12
2018-08-25T03:45:36.271Z,2.70
2018-08-25T03:50:39.570Z,2.75
2018-08-25T03:55:42.853Z,2.47
2018-08-25T04:00:46.231Z,2.80
2018-08-25T04:05:49.556Z,2.55
2018-08-25T04:10:53.425Z,2.70
2018-08-25T04:16:02.934Z,2.60
2018-08-25T04:21:06.499Z,3.00
2018-08-25T04:26:09.869Z,2.45
2018-08-25T04:31:13.257Z,2.90
2018-08-25T04:36:18.487Z,2.50
2018-08-25T04:41:21.912Z,2.50
2018-08-25T04:46:25.116Z,2.80
2018-08-25T04:51:28.413Z,2.50
2018-08-25T04:56:31.829Z,2.77
2018-08-25T05:01:35.224Z,2.70
2018-08-25T05:06:38.670Z,2.50
2018-08-25T05:11:42.613Z,2.60
2018-08-25T05:16:45.879Z,2.37
2018-08-25T05:21:49.182Z,2.70
2018-08-25T05:26:54.236Z,2.67
2018-08-25T05:31:57.664Z,2.70
2018-08-25T05:37:02.804Z,2.90
2018-08-25T05:42:08.722Z,2.40
2018-08-25T05:47:12.127Z,2.60
2018-08-25T05:52:16.350Z,2.58
2018-08-25T05:57:19.683Z,2.30
2018-08-25T06:02:23.115Z,2.60
2018-08-25T06:07:26.401Z,2.08
2018-08-25T06:12:30.400Z,2.87
2018-08-25T06:17:34.739Z,2.40
2018-08-25T06:22:39.353Z,2.85
2018-08-25T06:27:42.759Z,2.40
2018-08-25T06:32:46.052Z,2.80
2018-08-25T06:37:49.458Z,2.87
2018-08-25T06:42:53.193Z,2.85
2018-08-25T06:47:57.135Z,3.60
2018-08-25T06:53:01.473Z,2.40
2018-08-25T06:58:05.053Z,2.90
2018-08-25T07:03:08.314Z,3.10
2018-08-25T07:08:11.681Z,3.02
2018-08-25T07:13:15.109Z,3.40
2018-08-25T07:18:18.436Z,3.10
2018-08-25T07:23:21.791Z,3.72
2018-08-25T07:28:25.163Z,3.20
2018-08-25T07:33:28.559Z,3.70
2018-08-25T07:38:31.883Z,3.77
2018-08-25T07:43:35.264Z,3.80
2018-08-25T07:48:39.255Z,4.17
2018-08-25T07:53:42.940Z,4.15
2018-08-25T07:58:46.854Z,4.35
2018-08-25T08:03:50.461Z,4.37
2018-08-25T08:08:53.804Z,4.40
2018-08-25T08:13:57.707Z,4.40
2018-08-25T08:19:10.201Z,3.58
2018-08-25T08:24:13.536Z,4.20
2018-08-25T08:29:16.947Z,4.00
2018-08-25T08:34:20.275Z,4.22
2018-08-25T08:39:23.747Z,4.20
2018-08-25T08:44:27.195Z,3.87
2018-08-25T08:49:46.306Z,3.92
2018-08-25T08:54:37.224Z,4.17
2018-08-25T08:59:40.547Z,3.50
2018-08-25T09:04:45.116Z,3.80
2018-08-25T09:09:48.545Z,3.40
2018-08-25T09:14:51.841Z,4.00
2018-08-25T09:19:55.131Z,3.70
2018-08-25T09:24:58.488Z,3.40
2018-08-25T09:30:02.054Z,3.80
2018-08-25T09:35:05.406Z,3.60
2018-08-25T09:40:08.632Z,3.30
2018-08-25T09:45:11.924Z,3.33
2018-08-25T09:50:15.227Z,2.80
2018-08-25T09:55:18.548Z,3.22
2018-08-25T10:00:28.606Z,2.80
2018-08-25T10:05:32.148Z,2.50
2018-08-25T10:10:39.384Z,2.70
2018-08-25T10:15:45.313Z,2.20
2018-08-25T10:20:48.572Z,2.62
2018-08-25T10:25:51.900Z,2.98
2018-08-25T10:30:55.280Z,3.03
2018-08-25T10:35:58.652Z,3.00
2018-08-25T10:41:02.000Z,2.90
2018-08-25T10:46:05.426Z,3.00
2018-08-25T10:51:08.730Z,2.40
2018-08-25T10:56:12.093Z,1.80
2018-08-25T11:01:15.657Z,1.87
2018-08-25T11:06:20.263Z,1.50
2018-08-25T11:11:24.301Z,1.50
2018-08-25T11:16:27.635Z,1.50
2018-08-25T11:21:31.357Z,1.40
2018-08-25T11:26:34.707Z,1.25
2018-08-25T11:31:38.040Z,1.40
2018-08-25T11:36:41.388Z,1.10
2018-08-25T11:41:44.839Z,1.00
2018-08-25T11:46:48.317Z,1.10
2018-08-25T11:51:51.675Z,1.00
2018-08-25T11:56:54.968Z,1.03
2018-08-25T12:01:58.260Z,0.90
2018-08-25T12:07:01.679Z,1.10
2018-08-25T12:12:06.995Z,1.10
2018-08-25T12:17:10.381Z,1.10
2018-08-25T12:22:14.915Z,1.02
2018-08-25T12:27:18.416Z,1.00
2018-08-25T12:32:21.769Z,1.00
2018-08-25T12:37:25.097Z,1.00
2018-08-25T12:42:28.469Z,1.10
2018-08-25T12:47:32.846Z,1.20
2018-08-25T12:52:39.009Z,1.00
2018-08-25T12:57:42.327Z,1.10
2018-08-25T13:02:45.650Z,1.10
2018-08-25T13:07:49.020Z,1.10
2018-08-25T13:12:52.409Z,1.10
2018-08-25T13:17:55.734Z,1.20
2018-08-25T13:22:59.181Z,1.40
2018-08-25T13:28:02.769Z,1.10
2018-08-25T13:33:12.721Z,1.20
2018-08-25T13:38:23.220Z,1.10
2018-08-25T13:43:26.983Z,1.30
2018-08-25T13:48:32.489Z,1.20
2018-08-25T13:53:36.016Z,1.20
2018-08-25T13:58:39.432Z,1.27
2018-08-25T14:03:42.813Z,1.10
2018-08-25T14:08:46.122Z,1.50
2018-08-25T14:13:49.705Z,1.10
2018-08-25T14:24:49.694Z,1.10
2018-08-25T14:29:54.724Z,1.05
2018-08-25T14:35:00.018Z,1.40
2018-08-25T14:40:14.510Z,1.20
2018-08-25T14:45:19.595Z,1.30
2018-08-25T14:50:25.005Z,1.30
2018-08-25T14:55:29.765Z,1.20
2018-08-25T15:00:36.652Z,1.10
2018-08-25T15:05:50.974Z,1.17
2018-08-25T15:10:57.786Z,1.20
2018-08-25T15:16:03.072Z,1.10
2018-08-25T15:21:09.475Z,1.60
2018-08-25T15:26:14.701Z,1.20
2018-08-25T15:31:22.674Z,1.20
2018-08-25T15:36:27.227Z,1.10
2018-08-25T15:41:32.201Z,1.10
2018-08-25T15:46:36.222Z,1.30
2018-08-25T15:51:39.579Z,1.20
2018-08-25T15:56:47.304Z,1.50
2018-08-25T16:01:51.035Z,1.20
2018-08-25T16:06:54.586Z,1.20
2018-08-25T16:12:00.072Z,1.27
2018-08-25T16:17:03.568Z,1.20
2018-08-25T16:22:06.907Z,1.32
2018-08-25T16:27:10.297Z,1.20
2018-08-25T16:32:13.767Z,1.20
2018-08-25T16:37:18.076Z,1.10
2018-08-25T16:42:21.442Z,1.77
2018-08-25T16:47:24.872Z,1.30
2018-08-25T16:52:28.226Z,1.10
2018-08-25T16:57:31.508Z,1.37
2018-08-25T17:02:34.870Z,1.50
2018-08-25T17:07:38.239Z,1.30
2018-08-25T17:12:41.635Z,1.40
2018-08-25T17:17:45.009Z,1.60
2018-08-25T17:22:49.044Z,1.50
2018-08-25T17:27:52.673Z,1.45
2018-08-25T17:32:56.097Z,1.40
2018-08-25T17:37:59.513Z,1.50
2018-08-25T17:43:02.895Z,1.70
2018-08-25T17:48:06.278Z,1.52
2018-08-25T17:53:09.611Z,1.73
2018-08-25T17:58:14.479Z,1.50
2018-08-25T18:03:17.917Z,1.50
2018-08-25T18:08:22.008Z,1.60
2018-08-25T18:13:26.326Z,1.50
2018-08-25T18:18:29.685Z,1.60
2018-08-25T18:23:33.051Z,1.30
2018-08-25T18:28:36.380Z,1.60
2018-08-25T18:33:44.805Z,1.60
2018-08-25T18:38:49.119Z,1.60
2018-08-25T18:43:54.863Z,1.30
2018-08-25T18:49:00.388Z,2.10
2018-08-25T18:54:11.294Z,1.60
2018-08-25T18:59:15.926Z,1.50
2018-08-25T19:04:24.435Z,1.50
2018-08-25T19:09:27.811Z,1.30
2018-08-25T19:14:31.200Z,1.30
2018-08-25T19:19:34.858Z,1.50
2018-08-25T19:24:38.337Z,1.50
2018-08-25T19:29:42.138Z,1.47
2018-08-25T19:34:47.902Z,2.20
2018-08-25T19:39:51.360Z,1.60
2018-08-25T19:44:54.777Z,1.50
2018-08-25T19:49:58.072Z,1.60
2018-08-25T19:55:02.239Z,1.50
2018-08-25T20:00:05.862Z,1.40
2018-08-25T20:05:09.154Z,1.40
2018-08-25T20:10:12.578Z,1.30
2018-08-25T20:15:16.066Z,1.50
2018-08-25T20:20:21.556Z,1.20
2018-08-25T20:25:24.933Z,1.57
2018-08-25T20:30:28.409Z,1.50
2018-08-25T20:35:31.769Z,1.20
2018-08-25T20:40:35.084Z,1.47
2018-08-25T20:45:39.629Z,1.23
2018-08-25T20:50:43.151Z,1.30
2018-08-25T20:55:46.544Z,1.40
2018-08-25T21:00:49.916Z,1.60
2018-08-25T21:05:53.212Z,1.45
2018-08-25T21:10:56.483Z,1.40
2018-08-25T21:16:00.626Z,1.40
2018-08-25T21:21:03.852Z,1.40
2018-08-25T21:26:08.269Z,1.55
2018-08-25T21:31:11.553Z,1.40
2018-08-25T21:36:14.835Z,1.55
2018-08-25T21:41:18.226Z,1.52
2018-08-25T21:46:21.532Z,1.40
2018-08-25T21:51:35.116Z,1.60
2018-08-25T21:56:39.290Z,1.87
2018-08-25T22:01:46.825Z,1.57
2018-08-25T22:06:50.084Z,1.80
2018-08-25T22:11:53.713Z,1.67
2018-08-25T22:16:57.015Z,1.40
2018-08-25T22:22:00.414Z,1.47
2018-08-25T22:27:03.838Z,1.42
2018-08-25T22:32:07.604Z,1.40
2018-08-25T22:37:12.199Z,1.60
2018-08-25T22:42:18.938Z,1.67
2018-08-25T22:47:25.063Z,1.50
2018-08-25T22:52:34.731Z,1.65
2018-08-25T22:57:38.071Z,1.50
2018-08-25T23:02:41.791Z,1.50
2018-08-25T23:07:45.174Z,1.50
2018-08-25T23:12:48.968Z,1.40
2018-08-25T23:17:55.623Z,1.50
2018-08-25T23:28:39.816Z,1.50
2018-08-25T23:33:43.138Z,1.20
2018-08-25T23:38:46.460Z,1.50
2018-08-25T23:43:49.768Z,1.30
2018-08-25T23:48:53.154Z,1.60
2018-08-25T23:53:56.592Z,1.12
2018-08-25T23:58:59.924Z,1.40
